Date,TemperatureHighF,TemperatureAvgF,TemperatureLowF,DewpointHighF,DewpointAvgF,DewpointLowF,HumidityHigh,HumidityAvg,HumidityLow,PressureMaxIn,PressureMinIn,WindSpeedMaxMPH,WindSpeedAvgMPH,GustSpeedMaxMPH,PrecipitationSumIn
2013-1-1,77,65,53,62,57,50,95,78,56,30.21,30.03,18,1,18,0.00
2013-1-2,78,69,61,69,64,57,93,86,69,30.06,29.98,12,2,12,0.00
2013-1-3,74,65,59,69,63,58,96,94,85,30.16,30.02,19,1,19,0.34
2013-1-4,61,59,56,60,57,54,96,94,90,30.27,30.14,16,2,16,0.12
2013-1-5,74,64,56,64,59,53,95,85,70,30.29,30.17,12,1,12,0.00
2013-1-6,80,68,61,72,65,59,96,91,77,30.19,30.06,15,1,15,0.05
2013-1-7,65,63,60,64,60,56,95,91,81,30.20,30.09,14,3,14,0.02
2013-1-8,83,71,60,72,65,59,96,84,62,30.21,30.10,10,1,10,0.00
2013-1-9,86,75,68,73,68,65,95,80,56,30.27,30.15,10,1,10,0.00
2013-1-10,84,74,67,70,67,63,95,79,55,30.28,30.19,12,1,12,0.00
2013-1-11,84,73,66,69,65,62,93,76,49,30.26,30.11,12,1,12,0.00
2013-1-12,84,72,65,70,66,63,93,81,57,30.17,30.06,13,0,13,0.00
2013-1-13,82,72,65,68,64,62,91,79,59,30.16,30.05,9,1,9,0.00
2013-1-14,82,70,62,66,62,59,94,77,49,30.17,30.10,12,1,12,0.00
2013-1-15,82,69,59,68,62,57,95,80,57,30.14,30.04,12,1,12,0.00
2013-1-16,82,70,62,68,63,60,96,80,47,30.10,29.99,11,1,11,0.00
2013-1-17,72,62,54,70,58,45,95,85,67,30.15,29.98,22,4,22,0.07
2013-1-18,63,54,43,55,46,35,79,75,68,30.30,30.15,21,5,21,0.00
2013-1-19,75,65,55,62,56,49,84,74,62,30.27,30.11,15,2,15,0.00
2013-1-20,77,67,60,64,60,57,90,80,63,30.17,30.03,14,1,14,0.00
2013-1-21,74,65,59,64,58,53,89,79,69,30.09,30.01,13,1,13,0.00
2013-1-22,66,60,50,53,42,32,78,54,30,30.28,30.07,19,2,19,0.00
2013-1-23,69,56,48,43,39,33,82,56,31,30.36,30.26,13,1,13,0.00
2013-1-24,71,56,45,53,47,41,93,73,41,30.34,30.24,16,1,16,0.00
2013-1-25,76,59,48,58,49,46,96,73,39,30.31,30.18,10,1,10,0.00
2013-1-26,73,60,49,60,53,47,95,80,54,30.28,30.17,12,1,12,0.00
2013-1-27,79,64,51,61,55,49,95,73,43,30.30,30.20,11,1,11,0.00
2013-1-28,83,71,62,66,62,57,92,75,48,30.32,30.19,10,0,10,0.00
2013-1-29,84,71,60,69,64,58,95,80,55,30.23,30.07,17,2,17,0.00
2013-1-30,80,72,66,68,65,63,89,79,63,30.08,29.90,25,6,25,0.00
2013-1-31,71,57,46,67,45,32,93,66,37,30.24,29.91,21,3,21,0.14
2013-2-1,67,55,46,43,35,25,81,50,22,30.37,30.22,17,2,17,0.00
2013-2-2,74,58,47,48,42,34,84,58,26,30.31,30.15,12,1,12,0.00
2013-2-3,69,55,42,53,47,39,92,76,53,30.20,30.09,15,1,15,0.00
2013-2-4,71,55,43,54,43,35,93,68,29,30.14,30.04,12,1,12,0.00
2013-2-5,76,60,46,54,48,42,89,68,42,30.09,30.00,13,1,13,0.00
2013-2-6,79,68,59,63,58,54,89,72,51,30.10,30.02,13,1,13,0.00
2013-2-7,80,70,63,66,63,59,92,81,51,30.05,29.82,28,4,28,0.12
2013-2-8,76,67,57,66,60,54,90,81,58,30.08,29.89,21,3,21,0.00
2013-2-9,76,65,55,56,54,52,93,71,44,30.19,30.07,13,2,13,0.00
2013-2-10,82,70,62,63,60,55,83,70,48,30.24,30.12,12,2,12,0.00
2013-2-11,81,71,64,67,64,60,87,78,60,30.19,30.07,21,3,21,0.00
2013-2-12,80,72,65,71,68,62,95,86,74,30.09,29.94,24,4,24,0.00
2013-2-13,80,71,62,73,68,55,94,88,78,30.00,29.85,25,5,25,0.15
2013-2-14,65,62,60,61,59,56,94,90,81,30.04,29.91,13,1,13,0.47
2013-2-15,69,60,56,58,55,51,94,84,62,30.08,29.96,9,1,9,0.05
2013-2-16,68,58,51,53,47,35,90,68,47,30.14,29.94,24,5,24,0.00
2013-2-17,54,46,38,37,26,13,76,45,21,30.34,30.13,21,4,21,0.00
2013-2-18,71,54,36,49,38,27,81,58,38,30.36,30.20,14,1,14,0.00
2013-2-19,76,65,53,62,56,48,88,73,55,30.21,30.08,18,2,18,0.00
2013-2-20,78,66,60,64,60,54,93,82,60,30.12,30.01,14,1,14,0.00
2013-2-21,83,69,58,68,61,54,91,78,57,30.10,29.98,13,1,13,0.00
2013-2-22,83,71,61,70,65,58,93,82,64,30.06,29.99,18,3,18,0.00
2013-2-23,80,73,69,73,69,66,92,88,77,30.00,29.90,18,4,18,0.00
2013-2-24,81,73,69,72,69,67,95,89,74,29.95,29.87,15,2,15,0.00
2013-2-25,82,74,68,73,69,66,95,87,70,29.90,29.77,18,2,18,0.00
2013-2-26,75,71,66,72,68,62,93,88,73,29.89,29.69,22,3,22,0.33
2013-2-27,72,64,58,62,57,52,93,79,59,29.98,29.86,14,1,14,0.00
2013-2-28,72,62,53,57,52,48,93,72,48,30.01,29.91,16,2,16,0.00
2013-3-1,62,56,51,48,44,38,85,64,50,30.03,29.91,17,2,17,0.00
2013-3-2,58,54,48,43,40,37,76,59,50,30.09,29.98,20,3,20,0.01
2013-3-3,54,48,43,38,35,30,68,59,53,30.16,29.99,22,4,22,0.00
2013-3-4,67,52,40,42,36,31,80,56,33,30.23,30.13,14,1,14,0.00
2013-3-5,72,59,42,61,51,38,91,76,53,30.17,30.04,15,2,15,0.00
2013-3-6,66,59,53,63,46,37,90,64,44,30.14,29.97,24,6,24,0.02
2013-3-7,65,52,45,43,37,33,84,58,36,30.24,30.13,16,3,16,0.00
2013-3-8,74,56,43,49,42,38,92,64,29,30.23,30.12,12,1,12,0.00
2013-3-9,76,62,48,52,47,44,89,61,34,30.22,30.12,11,0,11,0.00
2013-3-10,79,63,58,57,54,51,84,72,47,30.16,30.10,11,1,11,0.00
2013-3-11,78,70,59,62,59,55,87,69,51,30.05,29.88,19,4,19,0.00
2013-3-12,70,64,56,66,58,50,93,82,68,30.05,29.84,20,4,20,0.48
2013-3-13,71,61,55,51,43,33,84,56,26,30.19,30.04,20,3,20,0.00
2013-3-14,64,57,52,49,37,25,84,50,23,30.28,30.17,20,4,20,0.00
2013-3-15,71,56,42,46,40,31,90,58,27,30.29,30.16,13,1,13,0.00
2013-3-16,76,60,46,56,48,41,92,68,32,30.19,30.08,14,2,14,0.00
2013-3-17,77,64,50,61,55,47,93,76,55,30.14,29.99,13,1,13,0.00
2013-3-18,74,68,60,67,62,57,89,83,75,30.03,29.88,17,2,17,0.01
2013-3-19,85,71,62,67,63,60,94,78,44,30.02,29.89,14,1,14,0.00
2013-3-20,73,66,60,65,61,57,91,84,68,29.97,29.80,15,2,15,0.14
2013-3-21,68,59,47,57,42,26,93,59,21,30.01,29.88,16,2,16,0.00
2013-3-22,76,61,45,67,52,41,92,74,41,30.00,29.88,14,1,14,0.09
2013-3-23,81,72,65,74,68,63,94,89,77,29.97,29.79,19,3,19,0.00
2013-3-24,80,73,69,74,70,66,95,91,82,29.82,29.65,23,5,23,0.00
2013-3-25,69,62,53,66,48,35,90,63,35,30.06,29.75,21,5,21,0.00
2013-3-26,58,53,47,46,37,32,73,54,44,30.25,30.05,30,5,30,0.00
2013-3-27,57,50,43,39,35,30,79,57,42,30.34,30.22,16,3,16,0.00
2013-3-28,71,55,42,42,36,24,89,55,19,30.31,30.20,12,1,12,0.00
2013-3-29,77,60,45,50,42,33,90,58,22,30.33,30.19,12,1,12,0.00
2013-3-30,76,62,48,55,50,45,91,67,38,30.25,30.14,21,2,21,0.00
2013-3-31,78,67,56,62,57,51,88,71,47,30.17,30.01,16,2,16,0.00
2013-4-1,81,72,67,68,65,61,88,77,60,30.03,29.96,20,3,20,0.00
2013-4-2,84,71,61,66,62,59,94,76,51,30.09,30.00,12,1,12,0.00
2013-4-3,85,72,63,68,65,59,90,78,54,30.08,29.93,17,3,17,0.06
2013-4-4,72,70,67,69,66,64,94,89,79,30.05,29.85,17,3,17,0.66
2013-4-5,73,67,62,67,61,55,93,81,58,29.99,29.80,19,4,19,0.02
2013-4-6,80,65,56,60,55,51,85,71,45,30.10,29.99,14,3,14,0.00
2013-4-7,84,72,61,62,59,56,89,67,41,30.15,30.04,11,1,11,0.00
2013-4-8,87,75,66,64,60,55,82,63,34,30.12,30.02,10,1,10,0.00
2013-4-9,87,76,66,67,64,62,89,69,47,30.15,30.05,12,1,12,0.00
2013-4-10,90,77,66,68,65,62,88,69,44,30.11,29.95,13,1,13,0.00
2013-4-11,88,78,72,73,70,65,90,78,58,29.98,29.80,24,4,24,0.06
2013-4-12,79,76,72,74,72,68,90,86,79,29.92,29.78,23,3,23,0.00
2013-4-13,88,76,68,70,67,63,92,74,48,29.97,29.87,11,1,11,0.00
2013-4-14,84,76,67,73,68,60,87,78,66,30.00,29.85,24,3,24,0.02
2013-4-15,91,78,68,71,65,61,83,67,47,30.06,29.92,11,1,11,0.00
2013-4-16,94,80,68,73,68,64,91,70,45,30.12,30.01,12,1,12,0.00
2013-4-17,90,79,70,68,65,61,87,65,40,30.13,30.00,14,1,14,0.00
2013-4-18,91,79,71,72,68,65,84,69,47,30.04,29.93,12,1,12,0.00
2013-4-19,88,79,73,74,71,69,89,77,56,30.00,29.92,21,5,21,0.00
2013-4-20,77,70,62,72,63,57,88,80,68,30.14,29.96,18,3,18,0.05
2013-4-21,84,71,61,69,64,57,89,79,60,30.13,30.01,15,2,15,0.05
2013-4-22,81,73,68,69,67,62,93,82,64,30.07,29.96,19,2,19,0.02
2013-4-23,86,74,66,67,63,60,87,69,44,30.10,30.00,14,2,14,0.00
2013-4-24,88,74,64,66,62,49,87,67,27,30.13,30.06,14,1,14,0.00
2013-4-25,86,75,64,69,65,60,89,71,52,30.20,30.09,13,1,13,0.00
2013-4-26,89,76,65,69,65,61,88,69,44,30.24,30.14,12,1,12,0.00
2013-4-27,89,78,71,69,66,61,88,67,42,30.21,30.06,13,1,13,0.00
2013-4-28,90,78,70,67,64,61,79,64,40,30.11,29.95,12,1,12,0.00
2013-4-29,85,77,69,70,66,62,86,71,56,30.02,29.89,15,2,15,0.16
2013-4-30,92,77,68,72,68,63,94,76,41,29.99,29.89,14,1,14,1.28
2013-5-1,75,72,67,72,68,65,93,89,85,29.99,29.90,11,0,11,0.92
2013-5-2,81,72,67,72,68,64,93,87,69,29.96,29.80,11,1,11,0.20
2013-5-3,82,74,67,71,68,65,94,82,64,29.82,29.71,14,2,14,0.24
2013-5-4,81,73,67,69,66,64,91,81,66,29.81,29.68,18,2,18,0.00
2013-5-5,75,69,64,66,56,49,90,65,42,29.94,29.80,22,4,22,0.00
2013-5-6,74,69,60,62,57,54,80,65,52,30.01,29.89,16,2,16,0.00
2013-5-7,77,68,57,60,57,53,88,71,52,30.05,29.97,18,2,18,0.00
2013-5-8,79,70,59,63,60,56,90,71,49,30.13,30.03,17,2,17,0.00
2013-5-9,86,73,60,67,62,58,93,71,40,30.15,30.07,12,1,12,0.00
2013-5-10,89,77,64,72,67,60,93,74,46,30.14,29.98,15,2,15,0.00
2013-5-11,88,78,72,74,71,68,91,80,55,30.05,29.99,19,2,19,0.00
2013-5-12,86,78,71,74,70,65,93,77,60,30.05,29.93,15,2,15,0.00
2013-5-13,83,74,65,69,59,42,90,64,29,30.13,30.00,19,2,19,0.00
2013-5-14,83,72,59,60,49,42,74,46,25,30.21,30.10,15,2,15,0.00
2013-5-15,88,76,65,62,58,54,79,56,33,30.20,30.06,14,1,14,0.00
2013-5-16,89,77,69,67,62,56,80,62,37,30.12,29.98,13,2,13,0.00
2013-5-17,87,78,71,68,65,63,81,66,47,30.09,30.01,13,2,13,0.00
2013-5-18,89,80,73,73,67,61,88,68,40,30.10,30.00,15,1,15,0.00
2013-5-19,91,80,69,73,67,63,91,67,42,30.08,29.97,13,1,13,0.00
2013-5-20,93,80,74,74,69,65,82,70,46,30.06,29.95,25,1,25,0.00
2013-5-21,90,77,72,72,69,66,89,78,48,30.02,29.91,23,1,23,0.54
2013-5-22,86,78,72,77,70,66,89,77,55,29.96,29.88,13,1,13,0.25
2013-5-23,89,79,70,74,71,67,93,77,59,30.00,29.90,13,1,13,0.00
2013-5-24,93,81,70,75,69,62,93,70,40,30.07,29.97,17,2,17,0.00
2013-5-25,93,82,75,70,65,59,79,58,34,30.16,30.04,17,2,17,0.00
2013-5-26,89,78,70,63,59,51,76,54,30,30.20,30.09,17,1,17,0.00
2013-5-27,91,80,71,67,64,60,79,59,39,30.17,30.03,14,1,14,0.00
2013-5-28,93,79,73,74,70,67,87,74,49,30.14,30.01,19,2,19,0.22
2013-5-29,90,80,74,74,71,67,88,75,54,30.08,30.00,20,2,20,0.00
2013-5-30,90,81,76,74,71,69,87,73,56,30.07,29.98,17,2,17,0.00
2013-5-31,90,79,75,76,71,68,91,78,57,30.07,29.98,14,1,14,0.60
2013-6-1,91,79,74,77,73,70,93,82,57,30.04,29.93,13,1,13,2.25
2013-6-2,90,80,73,78,74,71,94,82,62,29.99,29.88,14,1,14,0.00
2013-6-3,86,80,75,77,74,72,92,82,64,29.99,29.89,18,2,18,0.00
2013-6-4,85,80,76,75,73,72,88,80,69,30.00,29.92,17,2,17,0.00
2013-6-5,86,79,75,75,73,71,90,81,68,30.00,29.87,13,1,13,0.14
2013-6-6,81,77,74,76,73,72,94,89,79,29.88,29.64,29,3,29,3.15
2013-6-7,86,80,72,76,73,69,93,82,69,29.95,29.77,14,1,14,0.00
2013-6-8,88,80,73,78,74,70,93,84,68,30.09,29.95,16,1,16,1.84
2013-6-9,93,80,72,78,74,70,94,84,60,30.08,29.99,24,0,24,0.06
2013-6-10,93,83,77,78,74,71,90,77,56,30.08,29.99,13,1,13,0.00
2013-6-11,91,82,76,78,74,72,91,80,58,30.08,30.00,11,0,11,0.11
2013-6-12,92,83,74,78,73,70,91,73,55,30.08,29.99,12,1,12,0.00
2013-6-13,91,83,75,76,73,71,92,75,54,30.03,29.90,14,1,14,0.00
2013-6-14,88,82,77,75,73,71,85,75,59,29.95,29.87,15,2,15,0.00
2013-6-15,89,83,77,78,75,72,89,78,65,30.04,29.90,12,1,12,0.00
2013-6-16,94,84,79,79,76,72,88,77,51,30.07,29.99,14,1,14,0.00
2013-6-17,93,85,77,77,74,72,89,72,53,30.06,29.97,13,1,13,0.00
2013-6-18,92,84,76,78,74,71,90,75,53,30.04,29.96,15,1,15,0.00
2013-6-19,92,84,78,77,75,74,89,75,59,30.03,29.96,12,0,12,0.00
2013-6-20,92,83,74,78,74,68,90,75,55,30.09,29.99,13,1,13,0.50
2013-6-21,92,81,74,76,72,67,88,76,55,30.10,30.02,17,1,17,0.00
2013-6-22,94,81,74,76,72,69,90,75,48,30.11,30.02,18,0,18,0.14
2013-6-23,95,82,75,77,73,68,90,76,45,30.12,30.04,19,0,19,0.02
2013-6-24,95,84,78,76,74,70,90,72,47,30.17,30.03,11,0,11,0.73
2013-6-25,96,84,73,76,73,68,91,72,43,30.14,30.00,18,1,18,1.21
2013-6-26,92,81,74,78,74,71,94,82,53,30.06,29.99,15,1,15,1.04
2013-6-27,92,81,74,78,74,70,93,80,58,30.04,29.93,15,0,15,0.00
2013-6-28,90,83,75,78,75,72,93,79,63,29.97,29.84,17,2,17,0.03
2013-6-29,83,79,75,78,75,72,91,87,76,29.88,29.79,14,0,14,0.67
2013-6-30,88,81,76,79,75,72,92,84,70,29.87,29.79,18,2,18,0.56
2013-7-1,79,76,72,76,74,70,94,92,88,29.97,29.82,17,3,17,1.84
2013-7-2,89,39,-90,79,15,-100,94,55,63,30.07,29.93,20,2,20,0.92
2013-7-3,91,60,-29,80,44,-100,94,72,65,30.11,30.02,19,1,19,1.35
2013-7-4,90,78,74,78,74,71,95,87,64,30.14,30.04,15,1,15,0.65
2013-7-5,91,78,73,79,74,70,94,88,63,30.12,30.04,26,1,26,0.56
2013-7-6,96,83,75,78,75,72,94,78,49,30.10,30.00,13,0,13,0.14
2013-7-7,96,84,77,77,75,72,91,75,51,30.12,30.00,13,0,13,0.04
2013-7-8,96,83,76,77,74,72,92,77,49,30.15,30.05,11,0,11,0.23
2013-7-9,94,83,74,77,73,70,94,74,47,30.15,30.03,10,0,10,0.00
2013-7-10,91,82,75,75,72,69,90,74,52,30.08,29.94,13,1,13,0.10
2013-7-11,88,81,75,78,75,73,93,83,66,30.02,29.91,13,1,13,0.07
2013-7-12,91,81,76,77,74,72,91,81,60,29.94,29.87,13,0,13,0.20
2013-7-13,88,78,74,78,74,70,94,87,70,29.97,29.89,12,0,12,0.68
2013-7-14,88,79,75,79,75,72,92,85,72,30.07,29.93,12,0,12,0.01
2013-7-15,92,82,75,76,73,71,89,76,53,30.10,29.99,15,1,15,0.00
2013-7-16,94,80,76,75,73,70,89,79,52,30.13,30.05,26,1,26,0.15
2013-7-17,94,79,73,76,73,69,92,83,54,30.14,30.05,16,1,16,0.96
2013-7-18,90,78,74,76,73,71,92,84,61,30.10,30.03,18,0,18,0.12
2013-7-19,90,78,73,78,74,71,93,87,68,30.11,30.03,16,0,16,0.31
2013-7-20,91,80,75,79,74,72,91,83,65,30.10,30.00,21,0,21,0.01
2013-7-21,90,83,75,80,76,72,92,81,66,30.11,30.03,16,1,16,0.00
2013-7-22,91,84,77,79,77,74,92,80,66,30.12,30.05,15,1,15,0.00
2013-7-23,90,82,76,77,75,73,91,79,64,30.08,29.96,15,1,15,0.00
2013-7-24,90,83,79,78,76,74,88,78,66,30.00,29.90,18,2,18,0.02
2013-7-25,89,83,79,79,76,75,88,80,66,29.99,29.87,18,2,18,0.11
2013-7-26,91,82,76,80,76,72,93,83,57,30.01,29.94,17,1,17,0.41
2013-7-27,93,84,77,78,75,71,93,75,52,29.99,29.90,13,1,13,0.00
2013-7-28,90,81,75,79,74,71,90,79,63,30.04,29.92,18,0,18,0.03
2013-7-29,96,84,74,77,73,68,91,72,43,30.13,30.01,14,0,14,0.00
2013-7-30,97,84,76,78,74,72,90,73,47,30.16,30.04,20,0,20,0.13
2013-7-31,96,83,76,80,75,70,92,79,50,30.12,29.99,12,0,12,0.05
2013-8-1,93,83,78,77,74,70,87,76,48,30.04,29.93,16,1,16,0.00
2013-8-2,91,82,73,79,74,68,90,79,59,30.05,29.93,18,0,18,1.32
2013-8-3,92,84,75,79,75,72,92,76,59,30.08,29.99,13,1,13,0.00
2013-8-4,92,85,78,78,76,74,89,76,63,30.08,29.98,15,1,15,0.00
2013-8-5,92,85,78,79,76,74,89,76,60,30.02,29.92,14,1,14,0.00
2013-8-6,93,83,77,80,76,72,88,81,57,29.98,29.88,13,0,13,0.41
2013-8-7,91,79,75,79,74,70,90,86,68,29.95,29.89,9,0,9,0.23
2013-8-8,96,82,74,79,75,70,91,80,53,30.01,29.91,14,0,15,0.60
2013-8-9,95,81,74,78,74,70,91,81,49,30.04,29.95,11,0,11,0.82
2013-8-10,96,84,75,78,75,72,91,77,52,30.11,30.01,17,0,17,0.00
2013-8-11,97,86,79,78,75,72,86,71,47,30.14,30.03,10,0,10,0.00
2013-8-12,95,86,76,79,76,72,88,75,53,30.11,29.98,9,0,9,0.00
2013-8-13,96,86,79,77,75,70,84,71,45,30.04,29.92,12,1,12,0.00
2013-8-14,92,85,77,78,75,72,86,73,60,29.98,29.91,15,1,15,0.00
2013-8-15,85,84,83,76,75,75,77,76,75,30.02,29.94,11,1,11,0.00
2013-8-16,93,85,80,77,75,72,81,72,56,30.03,29.94,25,0,25,0.00
2013-8-17,95,82,75,80,75,71,91,80,55,30.06,29.96,25,0,25,0.70
2013-8-18,93,81,75,80,75,72,90,83,60,30.08,29.99,16,0,16,0.38
2013-8-19,96,82,75,80,74,70,90,80,47,30.06,29.94,22,0,22,0.34
2013-8-20,96,82,74,79,74,70,91,79,52,30.06,29.97,14,0,14,0.02
2013-8-21,97,83,77,79,74,69,88,77,49,30.09,29.97,18,1,18,0.15
2013-8-22,94,81,72,79,74,68,89,81,56,30.07,29.94,18,0,18,1.30
2013-8-23,94,57,-28,80,36,-100,90,62,50,30.01,29.94,19,1,19,0.01
2013-8-24,96,82,77,78,74,70,86,76,47,30.11,29.98,19,1,19,0.00
2013-8-25,90,80,76,75,73,71,85,78,62,30.14,30.05,13,1,13,0.00
2013-8-26,92,81,76,76,73,70,86,77,52,30.13,29.98,16,1,16,0.05
2013-8-27,94,80,75,76,72,70,86,79,50,30.04,29.96,15,1,15,0.00
2013-8-28,92,81,72,75,71,68,88,74,49,30.05,29.96,13,0,13,0.01
2013-8-29,91,82,73,74,71,68,86,72,54,30.02,29.92,14,1,14,0.00
2013-8-30,91,81,76,76,74,70,85,78,59,29.99,29.88,13,0,13,0.33
2013-8-31,91,81,74,76,73,70,88,77,59,29.98,29.87,17,1,17,0.23
2013-9-1,91,83,76,78,74,71,86,74,56,29.97,29.90,14,1,14,0.00
2013-9-2,91,82,75,78,73,70,86,76,57,30.01,29.92,13,1,13,0.14
2013-9-3,92,81,75,78,74,70,87,79,58,30.02,29.92,9,0,9,0.53
2013-9-4,96,81,75,79,73,69,88,78,53,30.08,29.95,28,0,28,0.28
2013-9-5,96,82,75,79,74,70,87,76,50,30.08,29.98,13,0,13,0.36
2013-9-6,95,74,-29,80,65,-100,88,77,52,30.05,29.93,22,1,22,0.78
2013-9-7,92,80,72,75,71,67,86,76,48,30.01,29.90,14,1,14,0.06
2013-9-8,92,82,73,75,71,69,87,72,50,29.96,29.84,13,1,13,0.00
2013-9-9,94,84,76,75,72,69,83,68,47,30.01,29.91,13,1,13,0.00
2013-9-10,93,84,77,75,71,66,83,68,46,30.07,29.97,20,2,20,0.00
2013-9-11,95,84,76,75,72,68,83,68,44,30.06,29.96,15,1,15,0.00
2013-9-12,92,81,75,76,72,70,84,77,54,30.00,29.86,14,0,14,0.02
2013-9-13,89,79,72,78,72,68,88,80,63,29.90,29.80,20,0,20,0.89
2013-9-14,92,81,74,79,73,69,88,77,58,29.96,29.83,6,0,10,0.02
2013-9-15,96,81,73,77,73,68,84,77,50,30.07,29.94,18,1,18,0.34
2013-9-16,96,80,74,77,72,69,86,78,51,30.06,29.96,26,0,26,0.09
2013-9-17,93,81,74,75,72,69,84,76,52,30.04,29.92,19,1,19,0.00
2013-9-18,93,81,75,76,72,69,83,77,55,30.02,29.94,19,1,19,0.05
2013-9-19,91,80,75,77,72,69,85,77,59,30.04,29.94,20,1,20,0.80
2013-9-20,92,81,73,73,70,68,86,71,49,30.02,29.88,11,0,11,0.00
2013-9-21,92,81,74,73,70,67,81,70,48,29.92,29.76,12,1,12,0.00
2013-9-22,87,82,78,77,74,72,83,78,68,29.84,29.74,12,1,17,0.07
2013-9-23,83,78,76,77,73,70,86,84,81,29.93,29.81,16,0,20,0.99
2013-9-24,80,34,-82,76,9,-100,89,56,86,29.95,29.83,10,1,12,1.13
2013-9-25,80,73,-42,76,69,-44,89,88,87,29.92,29.78,22,1,22,1.76
2013-9-26,88,81,75,80,76,70,88,83,70,29.87,29.77,20,1,20,0.01
2013-9-27,87,78,71,74,70,67,87,78,60,29.95,29.86,20,2,20,0.00
2013-9-28,89,79,72,73,70,67,84,75,55,30.00,29.91,15,2,15,0.00
2013-9-29,90,80,72,71,69,66,82,70,50,29.98,29.88,9,1,11,0.00
2013-9-30,91,81,73,74,70,68,83,72,49,29.98,29.90,11,0,11,0.00
2013-10-1,94,82,74,74,71,68,83,70,47,30.03,29.94,12,0,12,0.00
2013-10-2,92,82,74,74,71,68,81,70,52,30.04,29.95,16,1,16,0.00
2013-10-3,92,82,75,73,70,68,81,70,50,30.06,29.95,10,0,10,0.00
2013-10-4,91,82,77,74,72,70,81,73,53,30.07,29.98,6,0,10,0.00
2013-10-5,93,82,75,74,71,69,81,70,50,30.05,29.92,16,1,16,0.00
2013-10-6,91,81,74,75,71,68,83,73,50,29.98,29.85,11,1,11,0.00
2013-10-7,86,80,76,77,73,70,85,80,72,29.86,29.74,26,2,26,0.51
2013-10-8,86,81,76,76,73,69,82,77,68,29.94,29.79,20,2,20,0.00
2013-10-9,80,75,70,69,67,64,81,77,66,30.04,29.93,14,2,14,0.00
2013-10-10,87,75,67,70,66,61,83,73,54,30.05,29.95,12,1,12,0.00
2013-10-11,87,76,67,68,65,61,84,70,50,30.04,29.94,9,0,9,0.00
2013-10-12,86,74,66,67,62,60,84,68,44,30.04,29.96,15,1,15,0.00
2013-10-13,88,75,64,70,62,59,85,67,43,30.08,29.97,10,0,10,0.00
2013-10-14,85,75,66,68,64,61,83,70,49,30.04,29.92,14,2,14,0.00
2013-10-15,82,74,69,70,66,63,81,77,65,30.00,29.89,13,1,13,0.00
2013-10-16,84,75,68,71,67,62,84,76,61,29.96,29.89,12,0,12,0.00
2013-10-17,88,77,68,74,68,63,86,74,56,29.97,29.89,11,0,11,0.00
2013-10-18,91,79,71,75,70,65,86,75,55,29.97,29.88,11,0,11,0.00
2013-10-19,90,80,74,75,71,68,82,76,58,29.94,29.86,11,0,11,0.00
2013-10-20,90,79,74,76,71,68,86,77,61,29.95,29.86,9,0,9,0.01
2013-10-21,89,80,74,77,71,68,84,76,55,29.99,29.91,14,1,14,0.00
2013-10-22,86,77,71,76,71,67,87,81,70,29.95,29.82,20,1,20,0.33
2013-10-23,79,74,70,70,63,52,86,69,44,30.01,29.80,20,1,20,0.01
2013-10-24,72,68,63,58,50,45,74,54,46,30.16,30.00,18,3,18,0.00
2013-10-25,80,68,57,60,54,50,85,64,39,30.24,30.14,12,1,15,0.00
2013-10-26,78,68,61,59,56,45,79,66,33,30.20,30.09,11,1,11,0.00
2013-10-27,80,67,58,59,56,52,82,68,43,30.12,30.04,12,1,12,0.00
2013-10-28,84,70,57,62,56,51,83,65,34,30.18,30.08,11,0,11,0.00
2013-10-29,85,74,64,67,63,58,83,69,47,30.22,30.11,10,2,13,0.00
2013-10-30,88,76,68,69,65,61,81,70,48,30.22,30.07,14,1,14,0.00
2013-10-31,88,76,66,69,65,60,84,72,48,30.12,29.96,14,1,14,0.00
2013-11-1,85,78,73,73,70,67,81,78,67,29.99,29.87,21,2,21,0.00
2013-11-2,78,72,64,71,65,58,82,79,70,29.99,29.81,14,0,14,0.86
2013-11-3,76,67,59,58,51,42,85,60,31,30.11,29.97,20,2,20,0.00
2013-11-4,80,70,62,62,58,50,76,65,47,30.14,30.07,23,3,23,0.00
2013-11-5,82,74,67,68,65,60,80,73,61,30.15,30.03,20,2,20,0.00
2013-11-6,87,76,72,68,66,64,79,70,49,30.09,30.00,13,1,13,0.00
2013-11-7,80,73,68,68,65,62,81,75,62,30.05,29.96,11,0,11,0.00
2013-11-8,79,71,66,64,61,58,81,72,56,30.11,29.99,17,3,17,0.00
2013-11-9,83,73,65,67,63,58,77,70,59,30.15,30.07,15,2,15,0.00
2013-11-10,82,73,68,67,64,60,78,72,57,30.16,30.06,12,1,12,0.00
2013-11-11,83,73,67,68,64,60,80,73,57,30.15,30.05,13,1,13,0.00
2013-11-12,79,71,65,68,63,54,84,77,57,30.11,30.00,14,1,14,0.00
2013-11-13,70,62,55,54,49,46,74,65,55,30.30,30.07,25,6,25,0.00
2013-11-14,78,64,53,59,53,47,79,67,49,30.29,30.15,16,2,16,0.00
2013-11-15,72,68,64,63,60,56,79,76,70,30.17,30.04,12,1,12,0.02
2013-11-16,75,72,68,68,65,61,82,79,77,30.11,30.01,10,1,10,0.03
2013-11-17,85,75,69,72,66,62,79,74,62,30.07,29.98,9,0,9,0.00
2013-11-18,83,75,68,71,67,62,84,77,65,30.02,29.92,12,0,12,0.00
2013-11-19,80,74,67,70,66,60,83,77,67,29.97,29.87,11,1,11,0.00
2013-11-20,82,72,66,71,64,59,79,77,69,30.08,29.96,14,1,14,0.00
2013-11-21,85,76,72,71,67,65,80,76,63,30.17,30.06,16,1,16,0.00
2013-11-22,84,76,71,71,67,63,79,74,60,30.17,30.07,13,1,13,0.00
2013-11-23,84,72,65,67,63,58,83,73,53,30.11,30.00,12,0,12,0.00
2013-11-24,70,66,60,63,58,50,79,74,68,30.21,30.03,22,3,22,0.00
2013-11-25,78,68,60,62,57,50,76,69,57,30.22,30.04,15,1,15,0.00
2013-11-26,81,74,69,71,66,61,82,78,70,30.04,29.75,30,2,30,0.28
2013-11-27,73,63,47,67,55,39,84,73,64,30.21,29.73,25,5,25,0.03
2013-11-28,62,51,40,48,40,30,77,67,48,30.35,30.21,16,2,16,0.00
2013-11-29,72,61,53,56,51,46,79,71,52,30.35,30.25,17,3,17,0.00
2013-11-30,76,65,56,62,56,49,79,73,61,30.31,30.16,15,2,15,0.00
2013-12-1,74,64,60,64,57,54,84,78,67,30.18,29.98,12,1,12,0.00
2013-12-2,70,64,58,59,56,53,84,76,57,29.98,29.84,10,0,10,0.00
2013-12-3,79,68,57,66,60,51,84,76,61,29.97,29.88,12,0,12,0.00
2013-12-4,83,72,64,70,64,58,84,77,59,30.07,29.95,12,0,12,0.00
2013-12-5,84,72,64,68,63,58,84,75,55,30.16,30.06,10,0,10,0.00
2013-12-6,84,73,65,72,66,60,85,78,66,30.16,30.07,16,1,16,0.00
2013-12-7,85,73,66,70,64,61,85,75,51,30.22,30.12,6,0,6,0.00
2013-12-8,86,73,65,71,65,59,85,76,55,30.21,30.08,11,0,11,0.00
2013-12-9,83,73,66,72,65,60,83,77,65,30.17,30.07,16,1,16,0.00
2013-12-10,82,73,63,71,66,58,84,78,69,30.16,30.07,16,1,16,0.00
2013-12-11,82,71,64,68,63,56,80,75,61,30.24,30.14,12,1,12,0.00
2013-12-12,71,65,56,61,50,33,82,62,33,30.30,30.18,17,2,17,0.00
2013-12-13,76,64,54,58,51,40,76,65,43,30.28,30.09,15,1,15,0.00
2013-12-14,83,73,65,70,64,57,78,74,64,30.11,29.93,19,2,19,0.00
2013-12-15,75,68,59,68,60,51,80,75,67,30.13,29.88,18,1,18,0.02
2013-12-16,64,56,50,51,46,43,78,69,48,30.23,30.11,13,1,13,0.00
2013-12-17,71,58,50,51,46,41,77,66,48,30.25,30.15,13,1,13,0.00
2013-12-18,70,57,47,50,44,41,81,66,37,30.29,30.20,12,1,14,0.00
2013-12-19,78,61,46,59,50,40,79,68,43,30.27,30.15,10,0,10,0.00
2013-12-20,85,71,59,68,61,52,78,71,55,30.18,30.07,8,0,9,0.00
2013-12-21,85,74,66,70,65,59,79,73,60,30.12,30.00,15,1,15,0.00
2013-12-22,83,75,69,72,66,62,81,75,66,30.12,30.05,21,1,21,0.00
2013-12-23,83,74,67,73,67,60,81,77,72,30.15,30.08,19,1,19,0.00
2013-12-24,74,64,54,67,49,33,78,61,29,30.26,30.11,19,4,19,0.00
2013-12-25,75,62,49,59,49,37,72,63,55,30.25,30.11,13,1,13,0.00
2013-12-26,78,67,60,62,57,52,76,70,55,30.20,30.08,14,1,14,0.00
2013-12-27,71,66,61,62,57,53,75,74,73,30.24,30.12,14,2,14,0.03
2013-12-28,79,71,66,68,62,57,77,73,67,30.20,29.98,14,1,14,0.00
2013-12-29,75,70,62,66,61,54,76,73,72,30.02,29.88,22,1,22,0.98
2013-12-30,68,63,61,58,54,52,77,74,70,30.19,30.00,14,0,14,0.00
2013-12-31,68,64,60,54,52,50,72,65,56,30.29,30.15,16,1,16,0.00
2014-1-1,64,62,60,56,53,50,76,73,63,30.25,30.04,15,1,15,0.16
2014-1-2,78,57,60,71,33,-100,80,64,76,30.04,29.83,26,2,26,0.28